Time;durP1;ratioP1;P1;durP2;ratioP2;P2;SDS_P1;SDS_P2;PMS_P1;PMS_P2;Temp;Humidity;BMP_temperature;BMP_pressure;BME280_temperature;BME280_humidity;BME280_pressure;Samples;Min_cycle;Max_cycle;Signal;HPM_P1;HPM_P2
2023/11/14 00:00:21;;;;;;;8.50;6.03;;;;;;;24.81;38.05;99048.19;4484008;32;33223;-50
2023/11/14 00:02:49;;;;;;;11.07;6.53;;;;;;;24.79;38.08;99037.50;4484927;32;33683;-55
2023/11/14 00:05:16;;;;;;;10.05;6.78;;;;;;;24.78;38.17;99035.84;4485179;32;33529;-53
2023/11/14 00:07:45;;;;;;;8.80;6.15;;;;;;;24.79;38.13;99036.69;4485369;31;33956;-54
2023/11/14 00:10:13;;;;;;;8.20;6.45;;;;;;;24.77;38.29;99047.03;4484953;32;33356;-49
2023/11/14 00:12:41;;;;;;;9.05;5.95;;;;;;;24.78;38.20;99033.13;4484926;32;34802;-49
2023/11/14 00:15:09;;;;;;;9.23;5.80;;;;;;;24.76;38.20;99018.94;4485046;32;34802;-56
2023/11/14 00:17:36;;;;;;;8.45;6.18;;;;;;;24.76;38.28;99026.25;4484905;32;34494;-55
2023/11/14 00:20:06;;;;;;;11.23;6.75;;;;;;;24.75;38.28;99022.72;4485076;32;33470;-54
2023/11/14 00:22:34;;;;;;;9.05;6.60;;;;;;;24.73;38.30;99026.78;4478935;32;33886;-55
2023/11/14 00:25:02;;;;;;;11.43;6.87;;;;;;;24.75;38.33;99024.63;4484702;32;34724;-52
2023/11/14 00:27:29;;;;;;;8.88;6.25;;;;;;;24.72;38.36;99020.50;4485026;32;33988;-50
2023/11/14 00:29:57;;;;;;;9.80;6.15;;;;;;;24.71;38.40;99018.03;4485008;32;33194;-54
2023/11/14 00:32:25;;;;;;;8.85;5.93;;;;;;;24.69;38.48;99008.19;4484305;32;35103;-57
2023/11/14 00:34:52;;;;;;;8.60;5.70;;;;;;;24.69;38.48;99013.66;4484960;32;33999;-59
2023/11/14 00:37:20;;;;;;;10.50;6.03;;;;;;;24.68;38.57;99005.72;4484747;32;34291;-58
2023/11/14 00:39:48;;;;;;;8.68;5.85;;;;;;;24.67;38.67;98996.72;4484842;32;34095;-57
2023/11/14 00:42:16;;;;;;;8.75;6.20;;;;;;;24.65;38.86;98995.31;4484810;32;33923;-56
2023/11/14 00:44:44;;;;;;;8.10;5.55;;;;;;;24.65;38.87;98985.22;4484868;32;34435;-59
2023/11/14 00:47:12;;;;;;;9.45;5.70;;;;;;;24.64;38.86;98983.59;4484786;32;34507;-55
2023/11/14 00:49:40;;;;;;;8.63;6.18;;;;;;;24.64;38.81;98985.50;4484592;32;34007;-57
2023/11/14 00:52:07;;;;;;;7.32;5.53;;;;;;;24.64;38.79;98974.56;4484684;32;34608;-55
2023/11/14 00:54:36;;;;;;;8.95;5.53;;;;;;;24.63;38.82;98967.47;4484791;32;34057;-56
2023/11/14 00:57:04;;;;;;;9.90;5.50;;;;;;;24.63;38.83;98967.47;4484801;32;34384;-52
2023/11/14 00:59:32;;;;;;;10.18;5.65;;;;;;;24.61;38.84;98967.72;4484625;32;33491;-54
2023/11/14 01:02:00;;;;;;;7.05;5.20;;;;;;;24.61;38.83;98975.06;4484647;32;33633;-55
2023/11/14 01:04:27;;;;;;;10.00;5.62;;;;;;;24.59;38.76;98980.78;4484782;32;34722;-57
2023/11/14 01:06:55;;;;;;;8.63;5.57;;;;;;;24.60;38.83;98982.44;4484518;32;34482;-56
2023/11/14 01:09:23;;;;;;;8.18;5.68;;;;;;;24.59;38.82;98969.06;4484736;32;33492;-55
2023/11/14 01:11:50;;;;;;;7.28;4.97;;;;;;;24.59;38.76;98983.53;4485048;32;33981;-57
2023/11/14 01:14:18;;;;;;;7.43;5.03;;;;;;;24.58;38.85;98975.59;4484504;32;33446;-54
2023/11/14 01:16:47;;;;;;;8.30;5.87;;;;;;;24.57;38.94;98979.37;4484617;32;34143;-51
2023/11/14 01:19:14;;;;;;;8.25;5.32;;;;;;;24.57;38.90;98974.75;4484749;32;32942;-53
2023/11/14 01:21:42;;;;;;;8.88;5.90;;;;;;;24.55;38.89;98968.75;4484453;32;34637;-52
2023/11/14 01:24:10;;;;;;;7.20;4.80;;;;;;;24.55;38.89;98966.00;4484714;32;34118;-53
2023/11/14 01:26:37;;;;;;;8.07;5.35;;;;;;;24.55;38.82;98943.38;4484536;32;33745;-54
2023/11/14 01:29:05;;;;;;;8.07;5.43;;;;;;;24.54;38.87;98934.37;4484782;32;33346;-54
2023/11/14 01:31:33;;;;;;;8.77;5.80;;;;;;;24.54;38.89;98937.09;4484631;32;34771;-55
2023/11/14 01:34:02;;;;;;;9.23;5.55;;;;;;;24.53;38.90;98949.09;4484629;32;33976;-51
2023/11/14 01:36:30;;;;;;;8.68;5.60;;;;;;;24.52;38.92;98941.16;4484461;32;34718;-52
2023/11/14 01:38:58;;;;;;;6.93;5.32;;;;;;;24.52;38.93;98952.88;4484582;32;33264;-53
2023/11/14 01:41:25;;;;;;;7.87;5.00;;;;;;;24.52;38.88;98949.31;4484837;32;33957;-51
2023/11/14 01:43:53;;;;;;;7.95;5.40;;;;;;;24.51;38.83;98947.69;4484376;32;34871;-54
2023/11/14 01:46:21;;;;;;;9.13;6.32;;;;;;;24.50;38.86;98935.97;4484428;32;34139;-55
2023/11/14 01:48:50;;;;;;;8.23;5.62;;;;;;;24.49;38.86;98928.84;4483107;32;33199;-53
2023/11/14 01:51:18;;;;;;;7.43;4.80;;;;;;;24.48;38.85;98916.31;4484492;32;33804;-52
2023/11/14 01:53:48;;;;;;;8.65;5.18;;;;;;;24.47;38.84;98925.53;4484388;32;34785;-57
2023/11/14 01:56:15;;;;;;;8.75;5.60;;;;;;;24.47;38.85;98913.81;4483122;32;33830;-54
2023/11/14 01:58:43;;;;;;;7.22;5.15;;;;;;;24.48;38.92;98919.03;4483051;32;33129;-54
2023/11/14 02:01:13;;;;;;;7.50;5.15;;;;;;;24.44;39.01;98917.91;4484429;32;34260;-50
2023/11/14 02:03:41;;;;;;;6.22;4.45;;;;;;;24.44;39.00;98904.25;4484125;32;34034;-54
2023/11/14 02:06:09;;;;;;;7.60;4.70;;;;;;;24.43;38.99;98911.63;4484347;31;33978;-52
2023/11/14 02:08:38;;;;;;;7.43;5.20;;;;;;;24.43;38.95;98919.81;4484287;32;33117;-50
2023/11/14 02:11:06;;;;;;;8.25;5.30;;;;;;;24.43;38.99;98913.50;4484122;32;34092;-55
2023/11/14 02:13:34;;;;;;;8.27;5.12;;;;;;;24.43;38.97;98913.50;4483483;32;34639;-57
2023/11/14 02:16:02;;;;;;;8.00;4.82;;;;;;;24.42;38.98;98909.13;4484090;32;34742;-54
2023/11/14 02:18:31;;;;;;;10.65;5.07;;;;;;;24.41;38.98;98889.22;4484151;32;34242;-57
2023/11/14 02:20:58;;;;;;;10.27;5.03;;;;;;;24.41;39.04;98891.13;4484225;32;33987;-55
2023/11/14 02:23:26;;;;;;;6.82;4.85;;;;;;;24.40;39.04;98886.75;4484117;32;33737;-53
2023/11/14 02:25:56;;;;;;;7.97;4.85;;;;;;;24.40;39.09;98903.13;4469877;32;34563;-54
2023/11/14 02:28:23;;;;;;;8.70;4.72;;;;;;;24.40;39.04;98897.66;4482957;32;32959;-51
2023/11/14 02:30:51;;;;;;;7.22;4.50;;;;;;;24.39;39.06;98887.84;4484149;32;34087;-57
2023/11/14 02:33:18;;;;;;;6.50;4.37;;;;;;;24.38;39.01;98888.91;4482633;32;33705;-56
2023/11/14 02:35:46;;;;;;;7.37;5.03;;;;;;;24.37;39.13;98871.72;4484042;32;34582;-53
2023/11/14 02:38:16;;;;;;;8.13;4.85;;;;;;;24.37;39.04;98876.34;4483942;32;34072;-56
2023/11/14 02:40:51;;;;;;;;;;;;;;;24.37;38.99;98863.53;4484005;32;33835;-57
2023/11/14 02:43:20;;;;;;;6.53;4.45;;;;;;;24.46;38.90;98874.81;4484200;32;34293;-57
2023/11/14 02:45:48;;;;;;;6.67;4.67;;;;;;;24.37;39.01;98874.44;4483815;32;34152;-50
2023/11/14 02:48:15;;;;;;;7.05;4.60;;;;;;;24.35;39.21;98892.12;4483794;32;34132;-56
2023/11/14 02:50:52;;;;;;;8.07;5.10;;;;;;;24.33;39.24;98892.34;4482566;32;33781;-56
2023/11/14 02:53:20;;;;;;;7.22;4.57;;;;;;;24.33;39.32;98891.53;4482374;32;34122;-53
2023/11/14 02:55:51;;;;;;;6.45;4.47;;;;;;;24.31;39.31;98897.25;4483783;32;33953;-53
2023/11/14 02:58:19;;;;;;;6.45;4.55;;;;;;;24.31;39.39;98896.44;4483990;32;33466;-55
2023/11/14 03:00:48;;;;;;;8.40;4.87;;;;;;;24.30;39.33;98892.06;4483509;32;34462;-52
2023/11/14 03:03:18;;;;;;;8.55;4.82;;;;;;;24.29;39.35;98906.75;4483513;32;33659;-51
2023/11/14 03:05:45;;;;;;;8.65;4.62;;;;;;;24.29;39.38;98912.19;4483551;32;34696;-51
2023/11/14 03:08:13;;;;;;;11.35;5.35;;;;;;;24.28;39.38;98925.00;4483349;32;34199;-51
2023/11/14 03:10:43;;;;;;;6.43;4.55;;;;;;;24.28;39.34;98956.91;4483573;32;34849;-52
2023/11/14 03:13:11;;;;;;;9.60;3.95;;;;;;;24.28;39.36;98948.72;4483434;32;34163;-55
2023/11/14 03:15:39;;;;;;;7.82;4.90;;;;;;;24.28;39.30;98892.28;4483314;32;33961;-56
2023/11/14 03:18:07;;;;;;;6.53;4.60;;;;;;;24.27;39.37;98914.38;4483588;32;33464;-53
2023/11/14 03:20:35;;;;;;;7.78;4.75;;;;;;;24.27;39.35;98908.91;4483246;32;35378;-49
2023/11/14 03:23:03;;;;;;;7.97;4.82;;;;;;;24.27;39.40;98928.00;4483607;32;34028;-55
2023/11/14 03:25:33;;;;;;;7.10;4.67;;;;;;;24.25;39.35;98931.00;4484703;32;34841;-50
2023/11/14 03:28:01;;;;;;;6.80;4.87;;;;;;;24.26;39.37;98919.00;4485560;32;32916;-57
2023/11/14 03:30:29;;;;;;;9.68;4.80;;;;;;;24.25;39.46;98889.25;4485405;32;34757;-55
2023/11/14 03:32:57;;;;;;;6.80;4.07;;;;;;;24.23;39.45;98891.41;4485433;32;34000;-52
2023/11/14 03:35:24;;;;;;;7.32;4.82;;;;;;;24.24;39.40;98893.06;4485197;32;34530;-52
2023/11/14 03:37:52;;;;;;;9.30;4.43;;;;;;;24.23;39.51;98875.06;4485476;32;33564;-55
2023/11/14 03:40:20;;;;;;;7.25;4.68;;;;;;;24.23;39.59;98877.78;4485315;32;33235;-55
2023/11/14 03:42:49;;;;;;;6.37;4.32;;;;;;;24.23;39.57;98880.50;4485186;32;34017;-49
2023/11/14 03:45:16;;;;;;;7.90;4.82;;;;;;;24.22;39.47;98876.97;4485342;32;34508;-52
2023/11/14 03:47:44;;;;;;;7.65;4.25;;;;;;;24.22;39.48;98876.97;4485295;32;33775;-57
2023/11/14 03:50:12;;;;;;;10.95;4.60;;;;;;;24.23;39.43;98885.97;4484985;32;34367;-51
2023/11/14 03:52:39;;;;;;;7.37;4.37;;;;;;;24.19;39.20;98900.09;4485547;32;33787;-55
2023/11/14 03:55:08;;;;;;;9.32;4.37;;;;;;;24.21;39.26;98912.66;4484998;32;34017;-52
2023/11/14 03:57:36;;;;;;;8.73;4.47;;;;;;;24.20;39.22;98911.81;4485082;32;34424;-51
2023/11/14 04:00:09;;;;;;;6.68;4.12;;;;;;;24.19;39.17;98908.25;4485242;32;33643;-53
2023/11/14 04:02:39;;;;;;;9.82;4.37;;;;;;;24.18;39.25;98893.00;4484961;32;34286;-53
2023/11/14 04:05:07;;;;;;;10.23;4.55;;;;;;;24.17;39.25;98899.53;4485158;32;34592;-50
2023/11/14 04:07:35;;;;;;;7.57;4.32;;;;;;;24.16;39.27;98910.69;4485057;31;34450;-56
2023/11/14 04:10:03;;;;;;;6.95;4.30;;;;;;;24.16;39.30;98895.16;4484988;32;33326;-53
2023/11/14 04:12:31;;;;;;;6.78;4.20;;;;;;;24.15;39.31;98907.16;4485132;32;33995;-51
2023/11/14 04:14:59;;;;;;;6.30;4.03;;;;;;;24.15;39.36;98914.47;4485046;32;34072;-54
2023/11/14 04:17:26;;;;;;;6.65;4.30;;;;;;;24.14;39.37;98927.28;4484901;32;33159;-50
2023/11/14 04:19:54;;;;;;;6.47;4.57;;;;;;;24.14;39.36;98912.84;4485069;32;34695;-51
2023/11/14 04:22:22;;;;;;;6.25;4.20;;;;;;;24.14;39.37;98927.28;4485036;32;33402;-57
2023/11/14 04:24:51;;;;;;;6.18;4.37;;;;;;;24.12;39.38;98918.53;4485147;32;33881;-51
2023/11/14 04:27:19;;;;;;;5.33;3.90;;;;;;;24.12;39.41;98906.81;4484961;32;34160;-52
2023/11/14 04:29:46;;;;;;;6.40;3.70;;;;;;;24.13;39.44;98919.37;4484994;32;34240;-56
2023/11/14 04:32:14;;;;;;;6.55;4.18;;;;;;;24.11;39.47;98922.34;4484837;32;33702;-51
2023/11/14 04:34:45;;;;;;;7.15;4.47;;;;;;;24.11;39.53;98935.97;4484768;32;33852;-54
2023/11/14 04:37:12;;;;;;;6.22;4.03;;;;;;;24.10;39.58;98942.47;4484632;32;34114;-51
2023/11/14 04:39:40;;;;;;;6.47;4.12;;;;;;;24.11;39.58;98938.72;4485005;32;34605;-54
2023/11/14 04:42:08;;;;;;;11.07;4.00;;;;;;;24.11;39.54;98907.91;4484996;32;34674;-51
2023/11/14 04:44:36;;;;;;;7.20;4.45;;;;;;;24.11;39.58;98914.19;4484876;32;34033;-51
2023/11/14 04:47:05;;;;;;;7.37;4.37;;;;;;;24.12;39.53;98904.91;4484653;32;33267;-53
2023/11/14 04:49:34;;;;;;;7.62;3.85;;;;;;;24.09;39.64;98924.50;4484735;32;33468;-53
2023/11/14 04:52:02;;;;;;;6.55;3.78;;;;;;;24.11;39.58;98940.63;4485106;32;34020;-51
2023/11/14 04:54:29;;;;;;;6.25;3.78;;;;;;;24.09;39.59;98957.19;4484747;32;34275;-51
2023/11/14 04:56:57;;;;;;;6.07;3.80;;;;;;;24.09;39.59;98957.19;4485082;32;33454;-54
2023/11/14 04:59:25;;;;;;;7.55;4.35;;;;;;;24.08;39.66;98954.72;4484768;32;34750;-54
2023/11/14 05:01:53;;;;;;;6.20;3.87;;;;;;;24.08;39.63;98958.28;4484613;32;34449;-50
2023/11/14 05:04:20;;;;;;;6.28;3.80;;;;;;;24.07;39.63;98959.34;4484672;32;34496;-54
2023/11/14 05:06:48;;;;;;;5.87;3.58;;;;;;;24.07;39.63;98972.97;4484724;32;34140;-51
2023/11/14 05:09:18;;;;;;;5.68;3.50;;;;;;;24.07;39.62;98974.88;4484653;32;34770;-54
2023/11/14 05:11:46;;;;;;;6.03;3.67;;;;;;;24.07;39.67;98980.34;4484718;32;33899;-58
2023/11/14 05:14:13;;;;;;;5.72;3.62;;;;;;;24.07;39.71;98986.63;4484532;32;34718;-51
2023/11/14 05:16:41;;;;;;;4.95;3.35;;;;;;;24.06;39.65;98995.00;4484677;32;33839;-55
2023/11/14 05:19:09;;;;;;;8.68;3.95;;;;;;;24.05;39.67;98991.47;4483458;32;34038;-50
2023/11/14 05:21:38;;;;;;;6.57;3.92;;;;;;;24.05;39.75;98991.47;4484487;32;33994;-51
2023/11/14 05:24:07;;;;;;;5.47;3.47;;;;;;;24.05;39.76;98994.19;4484634;32;33641;-54
2023/11/14 05:26:35;;;;;;;6.25;3.92;;;;;;;24.05;39.71;98999.66;4484660;32;34290;-55
2023/11/14 05:29:03;;;;;;;5.75;3.37;;;;;;;24.05;39.74;98994.19;4484440;32;33942;-55
2023/11/14 05:31:33;;;;;;;6.15;3.33;;;;;;;24.06;39.73;98989.56;4484649;32;33815;-53
2023/11/14 05:34:00;;;;;;;;;;;;;;;24.03;39.78;98977.28;4484821;32;34123;-54
2023/11/14 05:36:28;;;;;;;5.25;3.20;;;;;;;24.14;39.58;98998.16;4484441;32;34383;-53
2023/11/14 05:38:55;;;;;;;6.57;3.78;;;;;;;24.04;39.66;98997.19;4484588;32;33567;-51
2023/11/14 05:41:23;;;;;;;6.37;3.72;;;;;;;24.02;39.76;99011.06;4484377;32;34936;-52
2023/11/14 05:43:51;;;;;;;6.35;3.35;;;;;;;24.02;39.88;99021.16;4484395;32;34537;-57
2023/11/14 05:46:18;;;;;;;6.05;4.00;;;;;;;24.01;39.81;99017.56;4484574;32;33126;-57
2023/11/14 05:48:46;;;;;;;5.60;3.70;;;;;;;24.01;39.80;99008.56;4483276;32;33685;-52
2023/11/14 05:51:14;;;;;;;6.12;4.10;;;;;;;24.01;39.83;99024.91;4484650;32;34122;-57
2023/11/14 05:53:44;;;;;;;5.22;3.30;;;;;;;24.00;39.86;99024.09;4484611;32;33961;-54
2023/11/14 05:56:12;;;;;;;6.03;3.42;;;;;;;23.99;39.86;99014.28;4484404;32;32923;-57
2023/11/14 05:58:40;;;;;;;7.43;3.50;;;;;;;23.99;39.88;99021.62;4484201;32;33612;-49
2023/11/14 06:01:07;;;;;;;5.43;3.42;;;;;;;23.98;39.88;99018.09;4484313;32;34071;-57
2023/11/14 06:03:35;;;;;;;8.95;4.10;;;;;;;23.99;39.92;99027.91;4484345;32;33943;-59
2023/11/14 06:06:04;;;;;;;8.95;3.60;;;;;;;24.00;39.97;99031.44;4484236;31;33020;-51
2023/11/14 06:08:31;;;;;;;7.15;3.70;;;;;;;23.98;39.91;99023.53;4484321;32;33309;-56
2023/11/14 06:11:00;;;;;;;5.43;3.78;;;;;;;23.99;39.92;99022.44;4484251;32;34521;-53
2023/11/14 06:13:28;;;;;;;4.97;3.53;;;;;;;23.99;39.91;99021.62;4484177;32;33919;-54
2023/11/14 06:15:55;;;;;;;5.20;3.25;;;;;;;23.99;39.92;99008.81;4484459;32;33395;-49
2023/11/14 06:18:23;;;;;;;7.07;3.50;;;;;;;23.98;40.00;99012.63;4484360;32;33905;-53
2023/11/14 06:20:50;;;;;;;10.02;3.47;;;;;;;23.98;39.94;99023.53;4484159;32;34355;-50
2023/11/14 06:23:19;;;;;;;8.95;4.03;;;;;;;23.98;39.99;98999.00;4483987;32;34867;-53
2023/11/14 06:25:47;;;;;;;5.18;3.28;;;;;;;23.98;39.98;98995.47;4483910;32;33687;-51
2023/11/14 06:28:14;;;;;;;5.87;3.87;;;;;;;23.96;39.98;99001.13;4482901;32;32181;-53
2023/11/14 06:30:42;;;;;;;6.93;3.50;;;;;;;23.97;39.92;99000.09;4484018;32;34763;-56
2023/11/14 06:33:09;;;;;;;5.40;3.30;;;;;;;23.97;39.95;98994.63;4483963;32;33955;-53
2023/11/14 06:35:37;;;;;;;7.30;4.12;;;;;;;23.96;39.99;98976.62;4483651;32;33530;-51
2023/11/14 06:38:05;;;;;;;5.82;3.78;;;;;;;23.95;40.05;98961.34;4483403;32;34065;-56
2023/11/14 06:40:32;;;;;;;8.10;3.47;;;;;;;23.96;40.01;98954.00;4483324;32;34699;-51
2023/11/14 06:43:00;;;;;;;9.05;4.10;;;;;;;23.96;40.06;98986.69;4481253;32;34762;-56
2023/11/14 06:45:28;;;;;;;5.75;3.58;;;;;;;23.96;40.09;99016.66;4483485;32;33556;-54
2023/11/14 06:47:56;;;;;;;6.70;3.67;;;;;;;23.96;40.07;99033.84;4483590;32;34725;-54
2023/11/14 06:50:24;;;;;;;6.97;3.35;;;;;;;23.97;39.99;99054.59;4483734;32;34070;-59
2023/11/14 06:53:08;;;;;;;9.60;3.40;;;;;;;23.97;40.06;99046.41;4483637;32;33706;-59
2023/11/14 06:55:35;;;;;;;11.02;3.47;;;;;;;23.97;39.40;99027.34;4477398;32;33366;-59
2023/11/14 06:58:03;;;;;;;11.52;3.60;;;;;;;23.96;39.23;99017.50;4483136;32;33690;-59
2023/11/14 07:00:31;;;;;;;7.28;3.62;;;;;;;23.93;39.50;99021.56;4484767;32;34234;-57
2023/11/14 07:02:58;;;;;;;7.50;3.70;;;;;;;23.92;39.62;99024.50;4483125;32;34037;-58
2023/11/14 07:05:26;;;;;;;10.27;3.40;;;;;;;23.91;39.62;99037.31;4484906;32;33175;-56
2023/11/14 07:07:54;;;;;;;7.62;3.47;;;;;;;23.90;39.76;99029.38;4484634;32;33627;-57
2023/11/14 07:10:23;;;;;;;5.20;3.10;;;;;;;23.87;39.68;99025.25;4485671;32;33937;-53
2023/11/14 07:12:51;;;;;;;7.60;3.95;;;;;;;23.89;39.63;99008.69;4485367;32;34798;-53
2023/11/14 07:15:20;;;;;;;8.68;3.42;;;;;;;23.88;39.59;98986.06;4485199;32;33330;-57
2023/11/14 07:17:49;;;;;;;6.12;3.42;;;;;;;23.87;39.61;98991.72;4485322;32;33851;-55
2023/11/14 07:20:20;;;;;;;9.43;3.28;;;;;;;23.87;39.57;98989.84;4485373;32;34431;-58
2023/11/14 07:22:49;;;;;;;5.10;3.00;;;;;;;23.87;39.57;99005.34;4485234;32;34951;-57
2023/11/14 07:25:16;;;;;;;6.32;3.50;;;;;;;23.87;39.59;99013.53;4484041;32;33548;-52
2023/11/14 07:27:46;;;;;;;5.45;3.53;;;;;;;23.87;39.57;99006.19;4485174;32;34660;-52
2023/11/14 07:30:14;;;;;;;7.03;3.30;;;;;;;23.85;39.55;98997.44;4483580;32;34651;-57
2023/11/14 07:32:42;;;;;;;6.15;3.55;;;;;;;23.84;39.54;99001.25;4483266;32;34589;-52
2023/11/14 07:35:10;;;;;;;7.43;2.95;;;;;;;23.85;39.52;99002.06;4483347;32;33279;-55
2023/11/14 07:37:38;;;;;;;5.55;2.67;;;;;;;23.86;39.50;98976.47;4481870;32;34794;-57
2023/11/14 07:40:06;;;;;;;6.43;3.10;;;;;;;23.87;39.48;99002.63;4483346;32;34477;-54
2023/11/14 07:42:34;;;;;;;5.28;3.12;;;;;;;23.86;39.49;99009.16;4483438;32;33851;-51
2023/11/14 07:45:02;;;;;;;5.95;3.28;;;;;;;23.87;39.48;98997.19;4483271;32;33637;-54
2023/11/14 07:47:30;;;;;;;5.47;3.25;;;;;;;23.86;39.50;99012.72;4484630;32;33484;-52
2023/11/14 07:49:58;;;;;;;5.53;2.78;;;;;;;23.88;39.48;99020.66;4484836;32;33677;-52
2023/11/14 07:52:27;;;;;;;4.80;3.00;;;;;;;23.87;39.48;99029.88;4475186;32;34377;-57
2023/11/14 07:54:55;;;;;;;6.53;3.40;;;;;;;23.88;39.49;99028.81;4483635;32;34284;-55
2023/11/14 07:57:24;;;;;;;4.47;2.80;;;;;;;23.89;39.49;99025.03;4485014;32;34370;-56
2023/11/14 07:59:51;;;;;;;5.22;3.08;;;;;;;23.89;39.47;99033.19;4485065;32;33918;-52
2023/11/14 08:02:19;;;;;;;6.85;3.30;;;;;;;23.90;39.46;99023.94;4485007;32;34217;-51
2023/11/14 08:04:47;;;;;;;5.12;2.90;;;;;;;23.90;39.49;99032.94;4485043;32;34363;-55
2023/11/14 08:07:14;;;;;;;7.20;3.10;;;;;;;23.90;39.49;99049.28;4485156;32;34063;-51
2023/11/14 08:09:41;;;;;;;7.18;3.20;;;;;;;23.91;39.52;99066.44;4484948;32;34796;-54
2023/11/14 08:12:09;;;;;;;7.85;3.37;;;;;;;23.91;39.53;99080.91;4484430;32;33884;-55
2023/11/14 08:14:38;;;;;;;7.55;3.08;;;;;;;23.91;39.53;99071.91;4485034;32;33467;-52
2023/11/14 08:17:05;;;;;;;4.53;2.65;;;;;;;23.91;39.54;99074.62;4485430;32;33849;-54
2023/11/14 08:19:33;;;;;;;3.85;2.75;;;;;;;23.92;39.56;99070.81;4484794;32;33915;-55
2023/11/14 08:22:05;;;;;;;6.62;3.50;;;;;;;23.91;39.59;99091.81;4484900;32;34830;-52
2023/11/14 08:24:33;;;;;;;5.85;2.75;;;;;;;23.92;39.60;99108.97;4484914;32;34288;-55
2023/11/14 08:27:01;;;;;;;6.57;2.70;;;;;;;23.93;39.57;99107.91;4484724;32;34894;-54
2023/11/14 08:29:28;;;;;;;7.43;2.85;;;;;;;23.93;39.51;99095.13;4485210;32;33997;-58
2023/11/14 08:31:56;;;;;;;6.05;3.12;;;;;;;23.95;39.45;99078.50;4484929;32;34815;-53
2023/11/14 08:34:24;;;;;;;6.45;3.10;;;;;;;23.95;39.44;99066.78;4484880;32;34334;-52
2023/11/14 08:36:51;;;;;;;6.78;3.00;;;;;;;23.94;39.54;99060.53;4483470;32;33646;-56
2023/11/14 08:39:19;;;;;;;5.53;2.90;;;;;;;23.95;39.66;99051.25;4484797;32;34727;-56
2023/11/14 08:41:46;;;;;;;4.70;2.80;;;;;;;23.95;39.74;99059.44;4484681;32;34828;-58
2023/11/14 08:44:14;;;;;;;6.12;3.03;;;;;;;23.96;39.78;99069.25;4485051;32;33577;-55
2023/11/14 08:46:42;;;;;;;5.93;3.00;;;;;;;23.97;39.82;99080.97;4484804;32;34782;-52
2023/11/14 08:49:10;;;;;;;6.20;3.08;;;;;;;23.96;39.87;99099.22;4484390;32;34673;-60
2023/11/14 08:51:38;;;;;;;4.22;2.62;;;;;;;23.96;39.85;99104.69;4484682;32;34111;-57
2023/11/14 08:54:06;;;;;;;7.90;2.67;;;;;;;23.97;39.79;99116.41;4483808;32;33532;-59
2023/11/14 08:56:34;;;;;;;5.35;2.97;;;;;;;23.98;39.59;99109.91;4484670;32;33422;-57
2023/11/14 08:59:02;;;;;;;5.00;2.22;;;;;;;23.97;39.54;99144.50;4484804;32;34153;-56
2023/11/14 09:01:29;;;;;;;5.87;2.67;;;;;;;23.97;39.52;99130.88;4484651;32;34841;-53
2023/11/14 09:03:57;;;;;;;5.40;2.65;;;;;;;23.98;39.70;99143.44;4484630;32;33341;-58
2023/11/14 09:06:25;;;;;;;7.95;2.87;;;;;;;23.99;39.69;99158.69;4484432;32;33865;-59
2023/11/14 09:08:52;;;;;;;5.20;2.85;;;;;;;23.99;39.72;99147.81;4484479;32;33916;-59
2023/11/14 09:11:21;;;;;;;6.22;2.40;;;;;;;24.01;39.80;99153.00;4483680;32;34757;-61
2023/11/14 09:13:55;;;;;;;6.60;2.45;;;;;;;24.01;39.58;99147.53;4483939;32;34280;-59
2023/11/14 09:16:23;;;;;;;6.35;2.90;;;;;;;24.00;39.62;99160.34;4484354;32;33549;-59
2023/11/14 09:18:51;;;;;;;5.35;2.50;;;;;;;23.99;39.91;99163.31;4484509;32;33997;-59
2023/11/14 09:21:19;;;;;;;9.95;2.67;;;;;;;23.97;40.07;99169.03;4484526;32;34147;-58
2023/11/14 09:23:47;;;;;;;6.68;2.67;;;;;;;23.97;40.11;99176.34;4484128;32;34639;-59
2023/11/14 09:26:15;;;;;;;6.85;3.08;;;;;;;23.95;40.08;99190.22;4484378;32;34554;-58
2023/11/14 09:28:43;;;;;;;5.80;2.60;;;;;;;23.95;40.11;99175.78;4484439;32;33941;-58
2023/11/14 09:31:10;;;;;;;7.03;2.80;;;;;;;23.94;40.18;99183.13;4484321;32;34760;-60
2023/11/14 09:33:38;;;;;;;5.32;2.50;;;;;;;23.92;40.22;99190.72;4484124;32;34462;-58
2023/11/14 09:36:06;;;;;;;4.03;2.40;;;;;;;23.92;40.22;99196.16;4476938;32;33471;-59
2023/11/14 09:38:34;;;;;;;6.97;2.65;;;;;;;23.90;40.23;99181.97;4483896;32;34072;-53
2023/11/14 09:41:02;;;;;;;6.82;2.50;;;;;;;23.90;40.17;99192.87;4484284;32;33723;-59
2023/11/14 09:43:30;;;;;;;5.40;2.33;;;;;;;23.88;40.21;99193.13;4483143;32;34378;-58
2023/11/14 09:45:58;;;;;;;5.45;2.35;;;;;;;23.88;40.21;99200.47;4484054;32;33963;-60
2023/11/14 09:48:26;;;;;;;6.30;2.58;;;;;;;23.86;40.21;99195.25;4483060;32;34017;-59
2023/11/14 09:50:54;;;;;;;8.32;2.60;;;;;;;23.86;40.20;99184.34;4470002;32;34324;-59
2023/11/14 09:53:27;;;;;;;6.80;3.00;;;;;;;23.84;40.19;99178.31;4484167;32;34165;-60
2023/11/14 09:55:55;;;;;;;4.97;2.70;;;;;;;23.83;40.17;99149.44;4483989;32;33955;-59
2023/11/14 09:58:22;;;;;;;5.10;2.40;;;;;;;23.82;40.18;99145.03;4481745;32;33681;-60
2023/11/14 10:00:50;;;;;;;5.70;2.45;;;;;;;23.81;40.18;99137.13;4472227;32;34995;-58
2023/11/14 10:03:18;;;;;;;4.57;2.45;;;;;;;23.81;40.18;99142.56;4483729;32;34348;-58
2023/11/14 10:05:45;;;;;;;3.80;2.17;;;;;;;23.80;40.19;99149.91;4484110;32;34546;-59
2023/11/14 10:08:14;;;;;;;6.47;2.67;;;;;;;23.80;40.19;99149.09;4484105;32;35306;-58
2023/11/14 10:11:05;;;;;;;4.60;2.28;;;;;;;23.78;40.16;99156.66;4484184;32;33708;-58
2023/11/14 10:13:33;;;;;;;7.50;3.00;;;;;;;23.80;40.12;99160.00;4483885;32;33566;-56
2023/11/14 10:16:20;;;;;;;4.90;2.72;;;;;;;23.78;40.13;99167.56;4482785;32;33408;-59
2023/11/14 10:18:51;;;;;;;6.40;2.47;;;;;;;23.78;40.14;99173.00;4484240;32;34002;-59
2023/11/14 10:21:28;;;;;;;5.22;2.83;;;;;;;23.74;40.17;99167.25;4482724;32;33378;-60
2023/11/14 10:24:01;;;;;;;3.83;2.12;;;;;;;23.73;40.18;99156.56;4483567;32;33522;-59
2023/11/14 10:26:28;;;;;;;4.43;2.50;;;;;;;23.73;40.15;99162.03;4484013;32;33812;-58
2023/11/14 10:28:57;;;;;;;5.30;2.92;;;;;;;23.73;40.15;99172.91;4482601;32;33998;-59
2023/11/14 10:31:35;;;;;;;4.20;2.33;;;;;;;23.72;40.15;99171.28;4483927;32;34935;-59
2023/11/14 10:34:07;;;;;;;5.35;2.70;;;;;;;23.73;40.11;99164.75;4483046;32;33568;-59
2023/11/14 10:36:46;;;;;;;7.25;2.72;;;;;;;23.71;40.12;99145.09;4482703;32;33811;-58
2023/11/14 10:39:13;;;;;;;5.45;2.40;;;;;;;23.71;40.10;99135.03;4483848;32;33980;-59
2023/11/14 10:41:41;;;;;;;4.22;2.30;;;;;;;23.70;40.11;99132.56;4482472;32;33787;-57
2023/11/14 10:44:10;;;;;;;6.25;2.80;;;;;;;23.70;40.10;99135.28;4483362;32;33774;-57
2023/11/14 10:46:48;;;;;;;5.28;2.70;;;;;;;23.68;40.09;99136.34;4483774;32;33983;-57
2023/11/14 10:49:16;;;;;;;4.12;2.30;;;;;;;23.70;40.08;99127.13;4483934;32;34687;-59
2023/11/14 10:51:45;;;;;;;5.05;2.60;;;;;;;23.68;40.08;99130.88;4483672;32;34036;-59
2023/11/14 10:54:13;;;;;;;5.28;2.72;;;;;;;23.67;40.08;99137.41;4467979;32;34279;-59
2023/11/14 10:56:41;;;;;;;3.75;2.30;;;;;;;23.68;40.07;99140.97;4483533;32;33774;-59
2023/11/14 10:59:19;;;;;;;4.57;2.53;;;;;;;23.67;40.08;99131.97;4483626;32;34678;-59
2023/11/14 11:01:47;;;;;;;4.05;2.15;;;;;;;23.67;40.05;99122.97;4469382;32;34628;-59
2023/11/14 11:04:36;;;;;;;4.30;2.40;;;;;;;23.67;40.05;99128.41;4483022;32;33643;-58
2023/11/14 11:07:05;;;;;;;4.18;2.30;;;;;;;23.67;40.02;99121.06;4483623;32;33576;-59
2023/11/14 11:09:32;;;;;;;4.28;2.33;;;;;;;23.66;40.03;99121.31;4469435;32;34903;-59
2023/11/14 11:12:00;;;;;;;4.43;2.30;;;;;;;23.65;40.05;99117.78;4482184;32;33879;-59
2023/11/14 11:14:27;;;;;;;7.00;2.22;;;;;;;23.64;40.05;99118.84;4480826;32;34607;-59
2023/11/14 11:16:55;;;;;;;5.37;2.45;;;;;;;23.64;40.05;99116.13;4472116;32;33945;-59
2023/11/14 11:19:25;;;;;;;4.43;2.35;;;;;;;23.63;40.03;99098.09;4483317;32;34674;-60
2023/11/14 11:22:00;;;;;;;3.42;2.28;;;;;;;23.63;40.03;99095.38;4483356;32;34213;-59
2023/11/14 11:24:28;;;;;;;4.65;2.53;;;;;;;23.64;40.03;99094.34;4483341;32;34459;-60
2023/11/14 11:27:12;;;;;;;4.72;2.25;;;;;;;23.62;40.05;99103.78;4482946;32;34943;-60
2023/11/14 11:29:44;;;;;;;4.28;2.10;;;;;;;23.64;40.02;99112.56;4483200;32;34348;-55
2023/11/14 11:32:27;;;;;;;4.25;2.35;;;;;;;23.62;40.03;99110.06;4482973;32;34720;-58
2023/11/14 11:35:14;;;;;;;6.70;2.10;;;;;;;23.64;40.01;99113.41;4483307;32;33565;-59
2023/11/14 11:37:45;;;;;;;6.68;2.37;;;;;;;23.63;40.00;99128.03;4471063;32;35350;-59
2023/11/14 11:40:13;;;;;;;4.43;2.20;;;;;;;23.61;40.04;99113.84;4483034;32;33905;-59